sensor_id;sensor_type;location;lat;lon;timestamp;pressure;altitude;pressure_sealevel;temperature;humidity
8298;BME280;4187;42.778;23.242;2023-05-23T00:00:46;95133.28;;;12.40;100.00
8298;BME280;4187;42.778;23.242;2023-05-23T00:03:16;95156.63;;;12.45;100.00
8298;BME280;4187;42.778;23.242;2023-05-23T00:05:47;95152.84;;;12.55;100.00
8298;BME280;4187;42.778;23.242;2023-05-23T00:08:14;95149.94;;;12.33;100.00
8298;BME280;4187;42.778;23.242;2023-05-23T00:10:41;95161.66;;;12.30;100.00
8298;BME280;4187;42.778;23.242;2023-05-23T00:13:10;95166.06;;;12.14;100.00
8298;BME280;4187;42.778;23.242;2023-05-23T00:15:39;95166.31;;;12.03;100.00
8298;BME280;4187;42.778;23.242;2023-05-23T00:18:06;95170.63;;;12.04;100.00
8298;BME280;4187;42.778;23.242;2023-05-23T00:20:35;95166.16;;;12.04;100.00
8298;BME280;4187;42.778;23.242;2023-05-23T00:23:05;95161.53;;;12.06;100.00
8298;BME280;4187;42.778;23.242;2023-05-23T00:25:33;95159.53;;;12.00;100.00
8298;BME280;4187;42.778;23.242;2023-05-23T00:28:00;95152.16;;;11.86;100.00
8298;BME280;4187;42.778;23.242;2023-05-23T00:30:29;95152.66;;;11.89;100.00
8298;BME280;4187;42.778;23.242;2023-05-23T00:32:56;95160.47;;;11.91;100.00
8298;BME280;4187;42.778;23.242;2023-05-23T00:35:25;95163.63;;;11.94;100.00
8298;BME280;4187;42.778;23.242;2023-05-23T00:37:52;95162.13;;;11.92;100.00
8298;BME280;4187;42.778;23.242;2023-05-23T00:40:20;95150.56;;;11.93;100.00
8298;BME280;4187;42.778;23.242;2023-05-23T00:42:47;95155.47;;;11.88;100.00
8298;BME280;4187;42.778;23.242;2023-05-23T00:45:14;95159.31;;;11.93;100.00
8298;BME280;4187;42.778;23.242;2023-05-23T00:47:43;95140.22;;;11.82;100.00
8298;BME280;4187;42.778;23.242;2023-05-23T00:50:11;95164.25;;;11.88;100.00
8298;BME280;4187;42.778;23.242;2023-05-23T00:52:40;95150.19;;;11.88;100.00
8298;BME280;4187;42.778;23.242;2023-05-23T00:55:08;95157.28;;;11.87;100.00
8298;BME280;4187;42.778;23.242;2023-05-23T00:57:36;95156.69;;;11.93;100.00
8298;BME280;4187;42.778;23.242;2023-05-23T01:00:06;95164.78;;;11.92;100.00
8298;BME280;4187;42.778;23.242;2023-05-23T01:02:37;95163.94;;;11.91;100.00
8298;BME280;4187;42.778;23.242;2023-05-23T01:05:08;95167.38;;;11.84;100.00
8298;BME280;4187;42.778;23.242;2023-05-23T01:07:35;95175.50;;;11.90;100.00
8298;BME280;4187;42.778;23.242;2023-05-23T01:10:03;95162.56;;;11.87;100.00
8298;BME280;4187;42.778;23.242;2023-05-23T01:12:39;95162.53;;;11.79;100.00
8298;BME280;4187;42.778;23.242;2023-05-23T01:15:09;95168.66;;;11.80;100.00
8298;BME280;4187;42.778;23.242;2023-05-23T01:17:43;95168.81;;;11.78;100.00
8298;BME280;4187;42.778;23.242;2023-05-23T01:20:20;95163.13;;;11.73;100.00
8298;BME280;4187;42.778;23.242;2023-05-23T01:26:15;95157.44;;;11.68;100.00
8298;BME280;4187;42.778;23.242;2023-05-23T01:28:49;95166.31;;;11.59;100.00
8298;BME280;4187;42.778;23.242;2023-05-23T01:31:17;95154.13;;;11.40;100.00
8298;BME280;4187;42.778;23.242;2023-05-23T01:33:45;95150.88;;;11.11;100.00
8298;BME280;4187;42.778;23.242;2023-05-23T01:36:14;95148.78;;;10.97;100.00
8298;BME280;4187;42.778;23.242;2023-05-23T01:38:41;95134.41;;;10.64;100.00
8298;BME280;4187;42.778;23.242;2023-05-23T01:41:08;95149.72;;;10.61;100.00
8298;BME280;4187;42.778;23.242;2023-05-23T01:43:35;95134.97;;;10.41;100.00
8298;BME280;4187;42.778;23.242;2023-05-23T01:46:05;95157.16;;;10.48;100.00
8298;BME280;4187;42.778;23.242;2023-05-23T01:48:33;95143.97;;;10.48;100.00
8298;BME280;4187;42.778;23.242;2023-05-23T01:51:01;95142.00;;;10.50;100.00
8298;BME280;4187;42.778;23.242;2023-05-23T01:53:29;95147.56;;;10.47;100.00
8298;BME280;4187;42.778;23.242;2023-05-23T01:55:56;95140.69;;;10.36;100.00
8298;BME280;4187;42.778;23.242;2023-05-23T01:58:27;95146.34;;;10.41;100.00
8298;BME280;4187;42.778;23.242;2023-05-23T02:00:54;95145.53;;;10.41;100.00
8298;BME280;4187;42.778;23.242;2023-05-23T02:03:23;95148.97;;;10.41;100.00
8298;BME280;4187;42.778;23.242;2023-05-23T02:05:49;95148.56;;;10.46;100.00
8298;BME280;4187;42.778;23.242;2023-05-23T02:08:16;95148.31;;;10.39;100.00
8298;BME280;4187;42.778;23.242;2023-05-23T02:10:43;95151.63;;;10.41;100.00
8298;BME280;4187;42.778;23.242;2023-05-23T02:13:10;95146.22;;;10.43;100.00
8298;BME280;4187;42.778;23.242;2023-05-23T02:15:37;95140.34;;;10.49;100.00
8298;BME280;4187;42.778;23.242;2023-05-23T02:18:04;95132.72;;;10.46;100.00
8298;BME280;4187;42.778;23.242;2023-05-23T02:20:32;95136.63;;;10.42;100.00
8298;BME280;4187;42.778;23.242;2023-05-23T02:22:59;95138.28;;;10.43;100.00
8298;BME280;4187;42.778;23.242;2023-05-23T02:25:26;95146.88;;;10.45;100.00
8298;BME280;4187;42.778;23.242;2023-05-23T02:27:53;95146.78;;;10.37;100.00
8298;BME280;4187;42.778;23.242;2023-05-23T02:30:20;95140.84;;;10.35;100.00
8298;BME280;4187;42.778;23.242;2023-05-23T02:32:46;95141.69;;;10.26;100.00
8298;BME280;4187;42.778;23.242;2023-05-23T02:35:13;95148.38;;;10.20;100.00
8298;BME280;4187;42.778;23.242;2023-05-23T02:37:41;95139.50;;;10.11;100.00
8298;BME280;4187;42.778;23.242;2023-05-23T02:40:09;95139.25;;;10.14;100.00
8298;BME280;4187;42.778;23.242;2023-05-23T02:42:35;95142.31;;;10.10;100.00
8298;BME280;4187;42.778;23.242;2023-05-23T02:45:03;95142.31;;;10.10;100.00
8298;BME280;4187;42.778;23.242;2023-05-23T02:47:29;95148.38;;;10.20;100.00
8298;BME280;4187;42.778;23.242;2023-05-23T02:49:56;95147.16;;;10.14;100.00
8298;BME280;4187;42.778;23.242;2023-05-23T02:52:24;95147.13;;;10.24;100.00
8298;BME280;4187;42.778;23.242;2023-05-23T02:54:52;95149.31;;;10.29;100.00
8298;BME280;4187;42.778;23.242;2023-05-23T02:57:19;95140.00;;;10.34;100.00
8298;BME280;4187;42.778;23.242;2023-05-23T02:59:46;95142.63;;;10.34;100.00
8298;BME280;4187;42.778;23.242;2023-05-23T03:02:13;95147.84;;;10.44;100.00
8298;BME280;4187;42.778;23.242;2023-05-23T03:04:40;95140.25;;;10.41;100.00
8298;BME280;4187;42.778;23.242;2023-05-23T03:07:07;95147.44;;;10.48;100.00
8298;BME280;4187;42.778;23.242;2023-05-23T03:09:35;95144.78;;;10.48;100.00
8298;BME280;4187;42.778;23.242;2023-05-23T03:12:04;95152.09;;;10.54;100.00
8298;BME280;4187;42.778;23.242;2023-05-23T03:14:31;95148.50;;;10.55;100.00
8298;BME280;4187;42.778;23.242;2023-05-23T03:16:58;95154.44;;;10.57;100.00
8298;BME280;4187;42.778;23.242;2023-05-23T03:19:28;95151.38;;;10.62;100.00
8298;BME280;4187;42.778;23.242;2023-05-23T03:21:55;95155.53;;;10.64;100.00
8298;BME280;4187;42.778;23.242;2023-05-23T03:24:22;95163.38;;;10.74;100.00
8298;BME280;4187;42.778;23.242;2023-05-23T03:26:48;95161.66;;;10.82;100.00
8298;BME280;4187;42.778;23.242;2023-05-23T03:29:17;95160.06;;;10.90;100.00
8298;BME280;4187;42.778;23.242;2023-05-23T03:31:43;95162.41;;;10.93;100.00
8298;BME280;4187;42.778;23.242;2023-05-23T03:34:10;95164.59;;;10.79;100.00
8298;BME280;4187;42.778;23.242;2023-05-23T03:36:37;95170.16;;;10.76;100.00
8298;BME280;4187;42.778;23.242;2023-05-23T03:39:04;95177.41;;;10.74;100.00
8298;BME280;4187;42.778;23.242;2023-05-23T03:41:31;95178.25;;;10.75;100.00
8298;BME280;4187;42.778;23.242;2023-05-23T03:43:58;95171.84;;;10.77;100.00
8298;BME280;4187;42.778;23.242;2023-05-23T03:46:27;95182.22;;;10.79;100.00
8298;BME280;4187;42.778;23.242;2023-05-23T03:48:54;95178.25;;;10.75;100.00
8298;BME280;4187;42.778;23.242;2023-05-23T03:51:21;95183.34;;;10.76;100.00
8298;BME280;4187;42.778;23.242;2023-05-23T03:53:48;95170.31;;;10.75;100.00
8298;BME280;4187;42.778;23.242;2023-05-23T03:56:15;95175.69;;;10.83;100.00
8298;BME280;4187;42.778;23.242;2023-05-23T03:58:42;95183.41;;;10.94;100.00
8298;BME280;4187;42.778;23.242;2023-05-23T04:01:09;95175.84;;;10.99;100.00
8298;BME280;4187;42.778;23.242;2023-05-23T04:03:37;95177.06;;;11.05;100.00
8298;BME280;4187;42.778;23.242;2023-05-23T04:06:04;95185.91;;;11.13;100.00
8298;BME280;4187;42.778;23.242;2023-05-23T04:08:31;95158.97;;;11.10;100.00
8298;BME280;4187;42.778;23.242;2023-05-23T04:10:59;95180.91;;;11.28;100.00
8298;BME280;4187;42.778;23.242;2023-05-23T04:13:26;95182.94;;;11.34;100.00
8298;BME280;4187;42.778;23.242;2023-05-23T04:15:55;95180.38;;;11.42;100.00
8298;BME280;4187;42.778;23.242;2023-05-23T04:18:22;95176.13;;;11.49;100.00
8298;BME280;4187;42.778;23.242;2023-05-23T04:20:50;95183.63;;;11.54;100.00
8298;BME280;4187;42.778;23.242;2023-05-23T04:23:17;95173.56;;;11.57;100.00
8298;BME280;4187;42.778;23.242;2023-05-23T04:25:44;95170.78;;;11.59;100.00
8298;BME280;4187;42.778;23.242;2023-05-23T04:28:12;95154.63;;;11.62;100.00
8298;BME280;4187;42.778;23.242;2023-05-23T04:30:41;95171.81;;;11.66;100.00
8298;BME280;4187;42.778;23.242;2023-05-23T04:33:08;95179.59;;;11.67;100.00
8298;BME280;4187;42.778;23.242;2023-05-23T04:35:36;95161.72;;;11.61;100.00
8298;BME280;4187;42.778;23.242;2023-05-23T04:38:06;95177.72;;;11.77;100.00
8298;BME280;4187;42.778;23.242;2023-05-23T04:40:33;95182.84;;;11.79;100.00
8298;BME280;4187;42.778;23.242;2023-05-23T04:42:59;95184.34;;;11.81;100.00
8298;BME280;4187;42.778;23.242;2023-05-23T04:45:26;95168.75;;;11.70;100.00
8298;BME280;4187;42.778;23.242;2023-05-23T04:47:53;95187.22;;;11.88;100.00
8298;BME280;4187;42.778;23.242;2023-05-23T04:50:21;95183.72;;;11.87;100.00
8298;BME280;4187;42.778;23.242;2023-05-23T04:52:48;95180.78;;;11.90;100.00
8298;BME280;4187;42.778;23.242;2023-05-23T04:55:16;95180.13;;;11.88;100.00
8298;BME280;4187;42.778;23.242;2023-05-23T04:57:44;95188.25;;;11.95;100.00
8298;BME280;4187;42.778;23.242;2023-05-23T05:00:12;95197.22;;;12.02;100.00
8298;BME280;4187;42.778;23.242;2023-05-23T05:02:40;95187.47;;;12.03;100.00
8298;BME280;4187;42.778;23.242;2023-05-23T05:05:07;95189.91;;;11.96;100.00
8298;BME280;4187;42.778;23.242;2023-05-23T05:07:34;95199.97;;;11.92;100.00
8298;BME280;4187;42.778;23.242;2023-05-23T05:10:02;95208.41;;;11.96;100.00
8298;BME280;4187;42.778;23.242;2023-05-23T05:12:30;95186.72;;;11.92;100.00
8298;BME280;4187;42.778;23.242;2023-05-23T05:14:57;95195.25;;;12.04;100.00
8298;BME280;4187;42.778;23.242;2023-05-23T05:17:24;95196.44;;;12.10;100.00
8298;BME280;4187;42.778;23.242;2023-05-23T05:19:51;95204.25;;;12.19;100.00
8298;BME280;4187;42.778;23.242;2023-05-23T05:22:17;95166.03;;;12.06;100.00
8298;BME280;4187;42.778;23.242;2023-05-23T05:24:44;95196.75;;;12.32;100.00
8298;BME280;4187;42.778;23.242;2023-05-23T05:27:11;95197.50;;;12.25;100.00
8298;BME280;4187;42.778;23.242;2023-05-23T05:29:39;95182.59;;;12.16;100.00
8298;BME280;4187;42.778;23.242;2023-05-23T05:32:06;95199.03;;;12.27;100.00
8298;BME280;4187;42.778;23.242;2023-05-23T05:34:34;95183.94;;;12.20;100.00
8298;BME280;4187;42.778;23.242;2023-05-23T05:37:02;95167.09;;;12.21;100.00
8298;BME280;4187;42.778;23.242;2023-05-23T05:39:29;95199.91;;;12.36;100.00
8298;BME280;4187;42.778;23.242;2023-05-23T05:41:56;95202.84;;;12.33;100.00
8298;BME280;4187;42.778;23.242;2023-05-23T05:44:22;95209.19;;;12.40;100.00
8298;BME280;4187;42.778;23.242;2023-05-23T05:46:50;95205.94;;;12.46;100.00
8298;BME280;4187;42.778;23.242;2023-05-23T05:49:17;95210.41;;;12.53;100.00
8298;BME280;4187;42.778;23.242;2023-05-23T05:51:44;95219.72;;;12.66;100.00
8298;BME280;4187;42.778;23.242;2023-05-23T05:54:11;95211.69;;;12.75;100.00
8298;BME280;4187;42.778;23.242;2023-05-23T05:56:38;95200.44;;;12.81;100.00
8298;BME280;4187;42.778;23.242;2023-05-23T05:59:04;95204.09;;;12.88;100.00
8298;BME280;4187;42.778;23.242;2023-05-23T06:01:31;95210.91;;;12.91;100.00
8298;BME280;4187;42.778;23.242;2023-05-23T06:04:00;95214.41;;;12.99;100.00
8298;BME280;4187;42.778;23.242;2023-05-23T06:06:27;95219.59;;;13.09;100.00
8298;BME280;4187;42.778;23.242;2023-05-23T06:08:54;95220.44;;;13.17;100.00
8298;BME280;4187;42.778;23.242;2023-05-23T06:11:20;95220.28;;;13.11;100.00
8298;BME280;4187;42.778;23.242;2023-05-23T06:13:47;95217.63;;;13.11;100.00
8298;BME280;4187;42.778;23.242;2023-05-23T06:16:14;95222.97;;;13.27;100.00
8298;BME280;4187;42.778;23.242;2023-05-23T06:18:41;95223.63;;;13.37;100.00
8298;BME280;4187;42.778;23.242;2023-05-23T06:21:09;95222.81;;;13.45;100.00
8298;BME280;4187;42.778;23.242;2023-05-23T06:23:36;95215.53;;;13.55;100.00
8298;BME280;4187;42.778;23.242;2023-05-23T06:26:03;95212.09;;;13.62;100.00
8298;BME280;4187;42.778;23.242;2023-05-23T06:28:32;95214.22;;;13.75;100.00
8298;BME280;4187;42.778;23.242;2023-05-23T06:30:59;95213.41;;;13.83;100.00
8298;BME280;4187;42.778;23.242;2023-05-23T06:33:27;95219.03;;;13.88;100.00
8298;BME280;4187;42.778;23.242;2023-05-23T06:35:56;95223.34;;;13.97;100.00
8298;BME280;4187;42.778;23.242;2023-05-23T06:38:26;95223.34;;;14.05;100.00
8298;BME280;4187;42.778;23.242;2023-05-23T06:40:54;95132.34;;;13.56;100.00
8298;BME280;4187;42.778;23.242;2023-05-23T06:43:21;95209.91;;;14.06;100.00
8298;BME280;4187;42.778;23.242;2023-05-23T06:45:47;95208.41;;;14.12;100.00
8298;BME280;4187;42.778;23.242;2023-05-23T06:48:14;95215.69;;;14.10;100.00
8298;BME280;4187;42.778;23.242;2023-05-23T06:50:41;95205.59;;;14.13;100.00
8298;BME280;4187;42.778;23.242;2023-05-23T06:53:08;95205.25;;;14.24;100.00
8298;BME280;4187;42.778;23.242;2023-05-23T06:55:36;95193.47;;;14.27;100.00
8298;BME280;4187;42.778;23.242;2023-05-23T06:58:03;95181.00;;;14.35;100.00
8298;BME280;4187;42.778;23.242;2023-05-23T07:00:29;95207.00;;;14.64;100.00
8298;BME280;4187;42.778;23.242;2023-05-23T07:02:56;95211.81;;;14.53;100.00
8298;BME280;4187;42.778;23.242;2023-05-23T07:05:26;95210.13;;;14.68;100.00
8298;BME280;4187;42.778;23.242;2023-05-23T07:07:53;95215.06;;;14.79;100.00
8298;BME280;4187;42.778;23.242;2023-05-23T07:10:20;95203.44;;;14.80;100.00
8298;BME280;4187;42.778;23.242;2023-05-23T07:12:48;95213.97;;;15.04;100.00
8298;BME280;4187;42.778;23.242;2023-05-23T07:15:15;95171.13;;;14.99;100.00
8298;BME280;4187;42.778;23.242;2023-05-23T07:17:42;95210.22;;;15.44;100.00
8298;BME280;4187;42.778;23.242;2023-05-23T07:20:09;95205.91;;;15.51;100.00
8298;BME280;4187;42.778;23.242;2023-05-23T07:22:36;95199.72;;;15.59;100.00
8298;BME280;4187;42.778;23.242;2023-05-23T07:25:04;95190.41;;;15.54;100.00
8298;BME280;4187;42.778;23.242;2023-05-23T07:27:31;95181.88;;;15.67;100.00
8298;BME280;4187;42.778;23.242;2023-05-23T07:29:59;95193.00;;;15.85;100.00
8298;BME280;4187;42.778;23.242;2023-05-23T07:32:26;95198.38;;;16.00;100.00
8298;BME280;4187;42.778;23.242;2023-05-23T07:34:52;95193.00;;;16.23;100.00
8298;BME280;4187;42.778;23.242;2023-05-23T07:37:19;95183.66;;;16.41;100.00
8298;BME280;4187;42.778;23.242;2023-05-23T07:39:46;95190.28;;;16.45;100.00
8298;BME280;4187;42.778;23.242;2023-05-23T07:42:13;95185.53;;;16.55;100.00
8298;BME280;4187;42.778;23.242;2023-05-23T07:44:40;95190.59;;;16.65;100.00
8298;BME280;4187;42.778;23.242;2023-05-23T07:47:08;95188.28;;;16.77;100.00
8298;BME280;4187;42.778;23.242;2023-05-23T07:49:35;95197.00;;;17.00;100.00
8298;BME280;4187;42.778;23.242;2023-05-23T07:52:02;95195.41;;;17.20;100.00
8298;BME280;4187;42.778;23.242;2023-05-23T07:54:29;95188.63;;;17.39;100.00
8298;BME280;4187;42.778;23.242;2023-05-23T07:56:56;95193.69;;;17.48;100.00
8298;BME280;4187;42.778;23.242;2023-05-23T07:59:23;95178.66;;;17.62;100.00
8298;BME280;4187;42.778;23.242;2023-05-23T08:01:50;95188.75;;;17.87;100.00
8298;BME280;4187;42.778;23.242;2023-05-23T08:04:18;95186.47;;;18.06;100.00
8298;BME280;4187;42.778;23.242;2023-05-23T08:06:45;95189.50;;;18.24;100.00
8298;BME280;4187;42.778;23.242;2023-05-23T08:09:13;95193.25;;;18.36;100.00
8298;BME280;4187;42.778;23.242;2023-05-23T08:11:40;95193.28;;;18.57;100.00
8298;BME280;4187;42.778;23.242;2023-05-23T08:14:07;95176.00;;;19.00;100.00
8298;BME280;4187;42.778;23.242;2023-05-23T08:16:34;95169.06;;;19.13;100.00
8298;BME280;4187;42.778;23.242;2023-05-23T08:19:01;95178.72;;;19.54;100.00
8298;BME280;4187;42.778;23.242;2023-05-23T08:21:30;95162.66;;;19.61;100.00
8298;BME280;4187;42.778;23.242;2023-05-23T08:23:57;95185.81;;;19.95;100.00
8298;BME280;4187;42.778;23.242;2023-05-23T08:26:24;95190.97;;;20.03;100.00
8298;BME280;4187;42.778;23.242;2023-05-23T08:28:52;95191.81;;;20.16;100.00
8298;BME280;4187;42.778;23.242;2023-05-23T08:31:19;95186.47;;;20.30;100.00
8298;BME280;4187;42.778;23.242;2023-05-23T08:33:46;95185.81;;;20.47;100.00
8298;BME280;4187;42.778;23.242;2023-05-23T08:36:13;95183.34;;;20.59;100.00
8298;BME280;4187;42.778;23.242;2023-05-23T08:38:41;95186.41;;;20.69;100.00
8298;BME280;4187;42.778;23.242;2023-05-23T08:41:15;95181.88;;;20.76;100.00
8298;BME280;4187;42.778;23.242;2023-05-23T08:43:44;95177.09;;;20.91;100.00
8298;BME280;4187;42.778;23.242;2023-05-23T08:46:11;95181.19;;;21.13;100.00
8298;BME280;4187;42.778;23.242;2023-05-23T08:48:38;95179.66;;;21.30;100.00
8298;BME280;4187;42.778;23.242;2023-05-23T08:51:07;95181.06;;;21.39;100.00
8298;BME280;4187;42.778;23.242;2023-05-23T08:53:35;95185.59;;;21.45;100.00
8298;BME280;4187;42.778;23.242;2023-05-23T08:56:04;95179.78;;;21.49;100.00
8298;BME280;4187;42.778;23.242;2023-05-23T08:58:33;95177.38;;;21.34;100.00
8298;BME280;4187;42.778;23.242;2023-05-23T09:01:01;95164.59;;;21.29;100.00
8298;BME280;4187;42.778;23.242;2023-05-23T09:03:28;95173.25;;;21.38;100.00
8298;BME280;4187;42.778;23.242;2023-05-23T09:05:55;95165.06;;;21.58;100.00
8298;BME280;4187;42.778;23.242;2023-05-23T09:08:23;95151.13;;;21.74;100.00
8298;BME280;4187;42.778;23.242;2023-05-23T09:10:50;95138.47;;;21.87;100.00
8298;BME280;4187;42.778;23.242;2023-05-23T09:13:19;95143.94;;;22.06;100.00
8298;BME280;4187;42.778;23.242;2023-05-23T09:16:04;95161.41;;;22.39;100.00
8298;BME280;4187;42.778;23.242;2023-05-23T09:18:36;95149.84;;;22.63;100.00
8298;BME280;4187;42.778;23.242;2023-05-23T09:21:04;95144.94;;;22.79;100.00
8298;BME280;4187;42.778;23.242;2023-05-23T09:23:31;95155.47;;;22.98;100.00
8298;BME280;4187;42.778;23.242;2023-05-23T09:26:01;95148.69;;;23.14;100.00
8298;BME280;4187;42.778;23.242;2023-05-23T09:28:30;95151.38;;;23.14;100.00
8298;BME280;4187;42.778;23.242;2023-05-23T09:30:57;95147.78;;;23.38;100.00
8298;BME280;4187;42.778;23.242;2023-05-23T09:33:28;95138.00;;;23.55;100.00
8298;BME280;4187;42.778;23.242;2023-05-23T09:35:55;95154.28;;;23.78;100.00
8298;BME280;4187;42.778;23.242;2023-05-23T09:38:23;95145.16;;;23.91;100.00
8298;BME280;4187;42.778;23.242;2023-05-23T09:40:53;95140.16;;;24.06;100.00
8298;BME280;4187;42.778;23.242;2023-05-23T09:43:22;95145.16;;;24.21;100.00
8298;BME280;4187;42.778;23.242;2023-05-23T09:45:52;95136.72;;;24.29;94.06
8298;BME280;4187;42.778;23.242;2023-05-23T09:48:19;95133.56;;;24.32;84.63
8298;BME280;4187;42.778;23.242;2023-05-23T09:50:45;95126.63;;;24.13;85.82
8298;BME280;4187;42.778;23.242;2023-05-23T09:53:15;95122.69;;;23.97;90.12
8298;BME280;4187;42.778;23.242;2023-05-23T09:55:42;95115.75;;;24.19;90.24
8298;BME280;4187;42.778;23.242;2023-05-23T09:58:10;95108.22;;;24.10;84.96
8298;BME280;4187;42.778;23.242;2023-05-23T10:00:37;95122.28;;;24.23;86.45
8298;BME280;4187;42.778;23.242;2023-05-23T10:03:09;95123.59;;;24.21;82.30
8298;BME280;4187;42.778;23.242;2023-05-23T10:05:41;95120.66;;;24.11;82.52
8298;BME280;4187;42.778;23.242;2023-05-23T10:08:13;95115.78;;;24.01;82.92
8298;BME280;4187;42.778;23.242;2023-05-23T10:14:00;95095.31;;;24.47;85.63
8298;BME280;4187;42.778;23.242;2023-05-23T10:16:33;95110.59;;;24.64;81.31
8298;BME280;4187;42.778;23.242;2023-05-23T10:19:14;95109.41;;;24.95;83.50
8298;BME280;4187;42.778;23.242;2023-05-23T10:21:43;95116.03;;;25.27;82.72
8298;BME280;4187;42.778;23.242;2023-05-23T10:24:14;95112.94;;;25.35;81.86
8298;BME280;4187;42.778;23.242;2023-05-23T10:26:42;95105.13;;;25.62;81.82
8298;BME280;4187;42.778;23.242;2023-05-23T10:29:10;95098.38;;;25.48;78.41
8298;BME280;4187;42.778;23.242;2023-05-23T10:31:37;95089.97;;;25.61;79.90
8298;BME280;4187;42.778;23.242;2023-05-23T10:34:13;95091.00;;;25.88;80.57
8298;BME280;4187;42.778;23.242;2023-05-23T10:36:47;95094.63;;;26.10;79.20
8298;BME280;4187;42.778;23.242;2023-05-23T10:39:30;95096.06;;;25.85;72.67
8298;BME280;4187;42.778;23.242;2023-05-23T10:42:01;95085.88;;;25.19;76.04
8298;BME280;4187;42.778;23.242;2023-05-23T10:44:31;95071.38;;;24.85;77.06
8298;BME280;4187;42.778;23.242;2023-05-23T10:46:59;95082.78;;;24.87;76.15
8298;BME280;4187;42.778;23.242;2023-05-23T10:49:41;95076.88;;;25.02;76.74
8298;BME280;4187;42.778;23.242;2023-05-23T10:52:10;95079.00;;;25.28;72.74
8298;BME280;4187;42.778;23.242;2023-05-23T10:54:43;94993.16;;;25.02;76.42
8298;BME280;4187;42.778;23.242;2023-05-23T10:57:14;95081.19;;;25.54;75.23
8298;BME280;4187;42.778;23.242;2023-05-23T10:59:42;95079.06;;;25.56;77.14
8298;BME280;4187;42.778;23.242;2023-05-23T11:02:14;95078.28;;;25.72;77.77
8298;BME280;4187;42.778;23.242;2023-05-23T11:04:42;95042.72;;;25.80;75.15
8298;BME280;4187;42.778;23.242;2023-05-23T11:07:29;95071.22;;;26.16;76.19
8298;BME280;4187;42.778;23.242;2023-05-23T11:10:03;95066.84;;;25.82;67.84
8298;BME280;4187;42.778;23.242;2023-05-23T11:12:36;95070.56;;;25.64;71.44
8298;BME280;4187;42.778;23.242;2023-05-23T11:15:19;95060.75;;;25.91;74.97
8298;BME280;4187;42.778;23.242;2023-05-23T11:17:50;95065.88;;;26.21;70.59
8298;BME280;4187;42.778;23.242;2023-05-23T11:20:20;95010.97;;;26.21;75.71
8298;BME280;4187;42.778;23.242;2023-05-23T11:22:58;95059.66;;;26.76;73.59
8298;BME280;4187;42.778;23.242;2023-05-23T11:25:39;95060.88;;;26.85;70.23
8298;BME280;4187;42.778;23.242;2023-05-23T11:28:07;95058.69;;;26.82;71.43
8298;BME280;4187;42.778;23.242;2023-05-23T11:30:35;95050.69;;;26.53;69.59
8298;BME280;4187;42.778;23.242;2023-05-23T11:33:06;95044.47;;;25.86;68.67
8298;BME280;4187;42.778;23.242;2023-05-23T11:35:36;95041.13;;;25.51;70.07
8298;BME280;4187;42.778;23.242;2023-05-23T11:38:04;95040.47;;;25.61;73.65
8298;BME280;4187;42.778;23.242;2023-05-23T11:40:31;95040.50;;;25.77;71.19
8298;BME280;4187;42.778;23.242;2023-05-23T11:42:59;95036.88;;;26.17;74.76
8298;BME280;4187;42.778;23.242;2023-05-23T11:45:27;95020.34;;;26.51;73.08
8298;BME280;4187;42.778;23.242;2023-05-23T11:47:55;95039.97;;;26.80;70.08
8298;BME280;4187;42.778;23.242;2023-05-23T11:50:22;95044.28;;;26.98;68.86
8298;BME280;4187;42.778;23.242;2023-05-23T11:52:53;95022.50;;;27.14;70.46
8298;BME280;4187;42.778;23.242;2023-05-23T11:55:20;95036.34;;;27.40;68.21
8298;BME280;4187;42.778;23.242;2023-05-23T11:57:47;95036.16;;;27.19;66.56
8298;BME280;4187;42.778;23.242;2023-05-23T12:00:15;95032.25;;;26.89;65.56
8298;BME280;4187;42.778;23.242;2023-05-23T12:18:31;95000.13;;;26.37;66.18
8298;BME280;4187;42.778;23.242;2023-05-23T12:20:59;95012.03;;;26.58;67.22
8298;BME280;4187;42.778;23.242;2023-05-23T12:23:27;94996.16;;;26.66;68.19
8298;BME280;4187;42.778;23.242;2023-05-23T12:25:55;94968.28;;;26.66;66.49
8298;BME280;4187;42.778;23.242;2023-05-23T12:28:34;94998.78;;;27.00;65.71
8298;BME280;4187;42.778;23.242;2023-05-23T12:31:08;94997.84;;;26.89;64.37
8298;BME280;4187;42.778;23.242;2023-05-23T12:33:38;94983.22;;;26.90;65.78
8298;BME280;4187;42.778;23.242;2023-05-23T12:36:08;94987.25;;;27.09;67.45
8298;BME280;4187;42.778;23.242;2023-05-23T12:38:36;94994.00;;;26.85;64.09
8298;BME280;4187;42.778;23.242;2023-05-23T12:41:09;94986.66;;;26.42;64.59
8298;BME280;4187;42.778;23.242;2023-05-23T12:43:39;94983.25;;;26.30;64.96
8298;BME280;4187;42.778;23.242;2023-05-23T12:46:06;94982.72;;;26.33;68.08
8298;BME280;4187;42.778;23.242;2023-05-23T12:48:33;94980.75;;;26.67;70.34
8298;BME280;4187;42.778;23.242;2023-05-23T12:51:02;94983.22;;;26.90;66.75
8298;BME280;4187;42.778;23.242;2023-05-23T12:53:30;94956.28;;;27.00;66.94
8298;BME280;4187;42.778;23.242;2023-05-23T12:55:57;94979.34;;;27.29;64.45
8298;BME280;4187;42.778;23.242;2023-05-23T12:58:24;94954.44;;;27.33;63.31
8298;BME280;4187;42.778;23.242;2023-05-23T13:00:51;94980.41;;;27.28;60.09
8298;BME280;4187;42.778;23.242;2023-05-23T13:03:18;94966.16;;;27.11;60.72
8298;BME280;4187;42.778;23.242;2023-05-23T13:05:45;94964.75;;;27.09;63.13
8298;BME280;4187;42.778;23.242;2023-05-23T13:08:14;94960.53;;;27.18;61.18
8298;BME280;4187;42.778;23.242;2023-05-23T13:10:43;94964.50;;;27.37;57.04
8298;BME280;4187;42.778;23.242;2023-05-23T13:13:10;94962.81;;;27.04;54.81
8298;BME280;4187;42.778;23.242;2023-05-23T13:15:36;94969.19;;;26.93;56.63
8298;BME280;4187;42.778;23.242;2023-05-23T13:18:07;94973.31;;;27.01;59.53
8298;BME280;4187;42.778;23.242;2023-05-23T13:20:33;94922.63;;;26.74;58.76
8298;BME280;4187;42.778;23.242;2023-05-23T13:23:00;94969.78;;;26.95;57.45
8298;BME280;4187;42.778;23.242;2023-05-23T13:25:28;94953.66;;;26.84;57.11
8298;BME280;4187;42.778;23.242;2023-05-23T13:27:55;94960.53;;;26.74;57.10
8298;BME280;4187;42.778;23.242;2023-05-23T13:30:23;94970.22;;;26.87;57.35